LSZRLSZB

Guest
Details From LSZR - St.gallen-altenrhein
To LSZB - Bern-belp
Flight Number -
Tags Generated
Created
Modified
Stats Distance 91 nm / 168 km
Max Altitude 0 ft / 0 m
Waypoints 2
Social Downloads 1
Likes 0
Share VATSIM

Download

Looking for another format? Having issues loading an existing format? Contact us
Advertisement - Login to hide

Notes

Generated

Route

LSZR LSZB

ID Type Via Altitude Latitude Longitude Leg Dist Tot Dist Heading (true) Name
O LSZR APT - 0 ft / 0 m 47.48658˚ 9.55628˚ - 0 nm - St.Gallen-Altenrhein
O LSZB APT - 0 ft / 0 m 46.91416˚ 7.49449˚ 90 nm 90 nm 249° / 247° -

Altitude Profile

Advertisement - Login to hide

LSZR

Details ICAO LSZR (ACH)
Name St.Gallen-Altenrhein
Region Switzerland
Timezone Europe/Zurich (UTC+1.0)
Stats Elevation 1,306 ft / 398 m (AMSL)
Location 47.485559° 9.560741°
Runways 2
Magnetic Variation 2.598° E

METAR

LSZR 180850Z 22003KT 160V270 1500 SN VV009 M00/M01 Q1022 NOSIG RMK E

Decode

TAF

Not found

Departure Runways

ID Width Length Bearing (true) Bearing (mag) Surface Threshold Offset Overrun Length
10 98 ft / 30 m 4,909 ft / 1,496 m 98.79° 96.19° Asphalt 328 ft / 100 m 0 ft / 0 m
10L 75 ft / 23 m 1,970 ft / 601 m 98.80° 96.20° Grass 0 ft / 0 m 0 ft / 0 m
28 98 ft / 30 m 4,909 ft / 1,496 m 278.81° 276.21° Asphalt 246 ft / 75 m 0 ft / 0 m
28R 75 ft / 23 m 1,970 ft / 601 m 278.80° 276.20° Grass 0 ft / 0 m 0 ft / 0 m

LSZB

Details ICAO LSZB (BRN)
Name Bern-Belp
Region Switzerland
Timezone Europe/Zurich (UTC+1.0)
Stats Elevation 1,672 ft / 510 m (AMSL)
Location 46.912547° 7.497672°
Runways 3
Magnetic Variation 2.083° E

METAR

LSZB 180850Z 00000KT 1200 R14/1300U SHSN VV006 M01/M02 Q1021 R14/610194 TEMPO 5000 -SN

Decode

TAF

Not found

Destination Runways

ID Width Length Bearing (true) Bearing (mag) Surface Threshold Offset Overrun Length
14 98 ft / 30 m 5,677 ft / 1,730 m 140.23° 138.15° Asphalt 656 ft / 200 m 0 ft / 0 m
14L 98 ft / 30 m 2,125 ft / 648 m 140.01° 137.93° Grass 0 ft / 0 m 0 ft / 0 m
14R 98 ft / 30 m 2,123 ft / 647 m 140.14° 138.06° Grass 0 ft / 0 m 0 ft / 0 m
32 98 ft / 30 m 5,677 ft / 1,730 m 320.24° 318.16° Asphalt 0 ft / 0 m 0 ft / 0 m
32L 98 ft / 30 m 2,123 ft / 647 m 320.14° 318.06° Grass 0 ft / 0 m 0 ft / 0 m
32R 98 ft / 30 m 2,125 ft / 648 m 320.01° 317.93° Grass 0 ft / 0 m 0 ft / 0 m

Approach Navaids

Runway Type Ident Frequency Range Bearing (true) Bearing (mag) Slope Elevation
14 Localiser IBE 110.10 MHz 18 nm / 33 km 140.24° 138.15° - 1,702 ft / 519 m (AMSL)
14 Glidescope IBE 110.10 MHz 10 nm / 19 km 140.24° 138.15° 4.00° 1,664 ft / 507 m (AMSL)
14 DME IBE 110.10 MHz 18 nm / 33 km - - - 1,684 ft / 513 m (AMSL)

Popular Alternatives